Time;durP1;ratioP1;P1;durP2;ratioP2;P2;SDS_P1;SDS_P2;PMS_P1;PMS_P2;Temp;Humidity;BMP_temperature;BMP_pressure;BME280_temperature;BME280_humidity;BME280_pressure;Samples;Min_cycle;Max_cycle;Signal;HPM_P1;HPM_P2
2023/05/25 00:01:42;;;;;;;7.87;3.67;;;;;;;14.23;47.56;97833.84;5015851;28;20192;-68
2023/05/25 00:04:09;;;;;;;5.73;3.40;;;;;;;14.19;47.34;97832.50;5011274;28;20484;-68
2023/05/25 00:06:39;;;;;;;9.17;3.30;;;;;;;14.22;47.36;97829.53;5023125;28;20439;-68
2023/05/25 00:09:05;;;;;;;6.60;3.20;;;;;;;14.12;47.53;97837.56;5015974;28;20609;-70
2023/05/25 00:11:30;;;;;;;6.30;3.70;;;;;;;14.19;47.28;97835.13;5011434;28;20439;-69
2023/05/25 00:13:56;;;;;;;10.17;3.30;;;;;;;14.22;47.51;97834.81;4990032;28;20185;-67
2023/05/25 00:16:21;;;;;;;7.27;2.90;;;;;;;14.25;47.01;97838.94;5020167;28;20254;-70
2023/05/25 00:18:47;;;;;;;7.20;3.43;;;;;;;14.23;46.79;97833.84;5023248;28;20212;-67
2023/05/25 00:21:14;;;;;;;8.30;3.40;;;;;;;14.16;47.00;97838.06;5022040;28;20294;-69
2023/05/25 00:23:40;;;;;;;9.17;3.10;;;;;;;14.20;47.02;97836.78;5015164;28;20422;-68
2023/05/25 00:26:05;;;;;;;8.73;3.47;;;;;;;14.24;46.85;97838.09;5015515;28;20450;-68
2023/05/25 00:28:31;;;;;;;9.30;3.70;;;;;;;14.24;46.81;97827.53;5020331;28;20299;-69
2023/05/25 00:30:56;;;;;;;7.70;3.60;;;;;;;14.20;47.16;97833.31;5017464;28;20223;-69
2023/05/25 00:33:21;;;;;;;8.53;3.00;;;;;;;14.13;47.34;97831.31;5017590;28;20583;-68
2023/05/25 00:35:47;;;;;;;6.10;3.03;;;;;;;14.10;47.91;97836.91;5017260;28;20219;-68
2023/05/25 00:38:13;;;;;;;10.60;3.40;;;;;;;14.15;47.63;97832.97;5016669;28;20219;-69
2023/05/25 00:40:39;;;;;;;8.73;3.60;;;;;;;14.13;48.11;97831.31;5015669;28;20214;-68
2023/05/25 00:43:07;;;;;;;9.30;3.17;;;;;;;14.19;48.22;97835.13;5016771;28;20450;-68
2023/05/25 00:45:32;;;;;;;7.23;3.77;;;;;;;14.18;48.55;97833.47;5016543;28;20522;-69
2023/05/25 00:47:59;;;;;;;9.13;3.60;;;;;;;14.22;48.58;97824.28;5023491;28;21027;-67
2023/05/25 00:50:42;;;;;;;10.30;3.30;;;;;;;14.30;47.80;97826.09;5014604;28;20256;-68
2023/05/25 00:53:08;;;;;;;7.00;3.57;;;;;;;14.33;48.13;97830.22;5011354;28;20442;-68
2023/05/25 00:56:12;;;;;;;8.03;3.77;;;;;;;14.30;48.25;97826.09;5017111;28;20562;-68
2023/05/25 00:58:40;;;;;;;7.47;3.57;;;;;;;14.28;48.27;97822.81;5013709;28;20450;-68
2023/05/25 01:01:10;;;;;;;6.90;3.40;;;;;;;14.18;48.41;97817.66;5017753;28;20493;-69
2023/05/25 01:03:37;;;;;;;9.10;3.37;;;;;;;14.19;48.32;97824.59;5014869;28;20442;-68
2023/05/25 01:06:06;;;;;;;7.47;3.63;;;;;;;14.19;48.23;97823.75;5011753;28;20463;-67
2023/05/25 01:08:33;;;;;;;7.70;3.10;;;;;;;14.18;48.32;97827.34;5021720;28;20470;-69
2023/05/25 01:10:59;;;;;;;6.83;3.33;;;;;;;14.19;48.39;97823.75;5019789;28;20519;-68
2023/05/25 01:13:26;;;;;;;6.63;3.53;;;;;;;14.19;48.36;97816.69;5014379;28;20578;-67
2023/05/25 01:15:51;;;;;;;7.70;3.30;;;;;;;14.08;48.74;97820.41;5017874;28;20501;-68
2023/05/25 01:18:17;;;;;;;6.10;3.30;;;;;;;14.11;48.95;97821.94;5026309;28;20446;-68
2023/05/25 01:21:25;;;;;;;7.13;3.00;;;;;;;14.07;48.78;97810.84;5013147;28;20192;-69
2023/05/25 01:24:21;;;;;;;8.07;3.20;;;;;;;14.09;49.12;97814.16;5032385;28;20253;-68
2023/05/25 01:27:20;;;;;;;7.37;3.60;;;;;;;14.06;49.19;97816.31;5024759;28;20422;-68
2023/05/25 01:29:45;;;;;;;13.37;3.77;;;;;;;13.88;49.62;97814.56;5016980;28;20806;-68
2023/05/25 01:32:12;;;;;;;8.80;3.30;;;;;;;13.91;49.69;97809.00;5018162;28;20531;-68
2023/05/25 01:34:38;;;;;;;10.00;3.97;;;;;;;13.91;49.21;97810.81;5006083;28;20431;-68
2023/05/25 01:37:04;;;;;;;9.73;3.73;;;;;;;13.84;49.75;97815.91;5018403;28;21045;-68
2023/05/25 01:39:30;;;;;;;7.37;3.70;;;;;;;13.86;49.78;97816.53;5013366;28;20439;-68
2023/05/25 01:41:55;;;;;;;8.23;3.90;;;;;;;13.73;50.01;97817.00;5016338;28;20222;-68
2023/05/25 01:44:21;;;;;;;9.03;3.83;;;;;;;13.74;50.18;97808.09;5018134;28;20226;-67
2023/05/25 01:46:49;;;;;;;8.60;3.77;;;;;;;13.72;49.99;97822.44;5029833;28;20199;-69
2023/05/25 01:49:22;;;;;;;6.90;3.40;;;;;;;13.68;50.17;97821.88;5027033;28;20200;-68
2023/05/25 01:51:54;;;;;;;8.83;3.77;;;;;;;13.59;50.34;97822.84;5021345;28;20422;-68
2023/05/25 01:54:24;;;;;;;6.13;3.30;;;;;;;13.59;50.23;97818.41;5024566;28;20528;-68
2023/05/25 01:56:51;;;;;;;7.80;3.70;;;;;;;13.47;50.80;97822.28;5017692;28;20551;-69
2023/05/25 01:59:19;;;;;;;8.80;3.63;;;;;;;13.38;50.98;97824.00;5013782;28;20470;-68
2023/05/25 02:01:46;;;;;;;10.93;5.00;;;;;;;13.14;51.69;97825.50;5017429;28;20476;-69
2023/05/25 02:04:11;;;;;;;9.70;3.33;;;;;;;13.15;51.99;97823.69;4994300;28;20439;-69
2023/05/25 02:06:37;;;;;;;6.47;4.00;;;;;;;13.27;51.69;97819.81;5022087;28;20435;-69
2023/05/25 02:09:03;;;;;;;7.90;3.57;;;;;;;13.37;51.31;97814.47;5013605;28;20250;-68
2023/05/25 02:11:28;;;;;;;9.00;3.80;;;;;;;13.15;52.03;97813.16;5019085;28;20612;-68
2023/05/25 02:13:54;;;;;;;9.90;3.77;;;;;;;13.01;52.27;97812.72;5018313;28;20526;-69
2023/05/25 02:16:19;;;;;;;10.20;3.83;;;;;;;13.16;51.97;97807.75;5013538;28;20686;-68
2023/05/25 02:18:45;;;;;;;9.43;3.60;;;;;;;13.13;52.13;97801.94;5026592;28;20626;-69
2023/05/25 02:21:11;;;;;;;13.60;4.40;;;;;;;13.06;51.81;97799.94;5014940;28;20204;-67
2023/05/25 02:23:36;;;;;;;7.20;3.80;;;;;;;13.16;51.70;97796.38;5011241;28;20872;-70
2023/05/25 02:26:02;;;;;;;9.80;4.23;;;;;;;13.20;51.78;97797.75;5013435;28;20431;-68
2023/05/25 02:28:27;;;;;;;7.47;4.00;;;;;;;13.15;51.35;97800.84;5010126;28;20676;-69
2023/05/25 02:30:52;;;;;;;10.13;3.50;;;;;;;13.09;51.56;97803.25;5009186;28;20200;-68
2023/05/25 02:33:18;;;;;;;8.80;3.90;;;;;;;13.12;51.59;97797.66;5010168;28;20242;-70
2023/05/25 02:35:43;;;;;;;10.87;3.63;;;;;;;13.18;51.02;97794.44;5009501;28;20200;-69
2023/05/25 02:38:09;;;;;;;9.10;3.80;;;;;;;13.16;51.16;97799.03;5010051;28;20218;-66
2023/05/25 02:40:34;;;;;;;7.60;3.70;;;;;;;13.16;51.04;97796.38;5009654;28;20196;-67
2023/05/25 02:43:00;;;;;;;7.53;3.77;;;;;;;13.08;51.49;97789.25;5009228;28;20188;-70
2023/05/25 02:45:25;;;;;;;9.33;4.27;;;;;;;12.99;51.67;97790.19;5009971;28;20192;-68
2023/05/25 02:47:51;;;;;;;15.87;3.90;;;;;;;12.96;52.45;97785.22;5015133;28;20254;-70
2023/05/25 02:50:16;;;;;;;7.97;4.07;;;;;;;12.95;52.15;97792.31;5009829;28;20322;-69
2023/05/25 02:52:41;;;;;;;4.90;3.67;;;;;;;12.95;52.50;97800.19;5008666;28;20223;-68
2023/05/25 02:55:12;;;;;;;7.90;3.83;;;;;;;12.97;51.97;97787.72;5015079;28;20219;-69
2023/05/25 02:57:37;;;;;;;9.17;3.60;;;;;;;12.76;52.79;97795.94;5011786;28;20266;-68
2023/05/25 03:00:05;;;;;;;12.03;4.30;;;;;;;12.73;52.80;97807.56;5008819;28;20932;-68
2023/05/25 03:02:31;;;;;;;6.50;4.07;;;;;;;12.74;52.80;97806.59;5009492;28;20203;-68
2023/05/25 03:04:57;;;;;;;9.43;3.90;;;;;;;12.77;52.71;97812.53;5009081;28;20812;-68
2023/05/25 03:07:25;;;;;;;16.50;4.90;;;;;;;12.77;52.84;97818.63;5009620;28;20227;-68
2023/05/25 03:09:51;;;;;;;14.10;5.20;;;;;;;12.80;52.91;97814.88;5007665;28;20192;-68
2023/05/25 03:12:16;;;;;;;12.33;4.63;;;;;;;12.74;52.71;97819.75;5008770;28;20446;-69
2023/05/25 03:14:42;;;;;;;9.47;4.00;;;;;;;12.69;53.12;97811.50;5012662;28;20462;-68
2023/05/25 03:17:07;;;;;;;9.87;4.33;;;;;;;12.63;53.05;97806.00;5010347;28;20243;-67
2023/05/25 03:19:32;;;;;;;8.50;4.10;;;;;;;12.62;53.08;97799.91;5014135;28;20247;-69
2023/05/25 03:21:58;;;;;;;12.43;4.53;;;;;;;12.62;53.31;97809.63;5010104;28;20770;-69
2023/05/25 03:24:23;;;;;;;10.57;4.63;;;;;;;12.46;53.58;97820.81;5016760;28;20676;-68
2023/05/25 03:26:49;;;;;;;9.50;4.07;;;;;;;12.54;53.56;97823.50;5011381;28;20212;-69
2023/05/25 03:29:14;;;;;;;7.73;3.63;;;;;;;12.44;53.70;97819.16;5013726;28;20666;-68
2023/05/25 03:31:40;;;;;;;8.53;4.10;;;;;;;12.55;53.66;97819.91;5012343;28;20245;-68
2023/05/25 03:34:05;;;;;;;12.00;3.60;;;;;;;12.57;53.43;97817.97;5008296;28;20188;-68
2023/05/25 03:36:32;;;;;;;7.80;3.77;;;;;;;12.53;53.58;97816.59;5009152;28;20566;-68
2023/05/25 03:38:58;;;;;;;14.10;4.60;;;;;;;12.57;53.29;97817.97;5007565;28;20603;-69
2023/05/25 03:41:23;;;;;;;7.93;4.43;;;;;;;12.48;53.45;97824.94;5034931;28;20453;-68
2023/05/25 03:43:49;;;;;;;9.33;4.07;;;;;;;12.39;53.82;97810.06;5007907;28;20199;-67
2023/05/25 03:46:14;;;;;;;9.30;4.40;;;;;;;12.32;54.09;97817.72;5009065;28;20687;-68
2023/05/25 03:48:40;;;;;;;10.27;4.03;;;;;;;12.38;53.98;97816.28;5005993;28;20723;-67
2023/05/25 03:51:05;;;;;;;8.13;4.07;;;;;;;12.34;53.81;97815.78;5014601;28;20705;-68
2023/05/25 03:53:31;;;;;;;9.07;4.27;;;;;;;12.27;54.19;97822.59;5008423;28;20204;-68
2023/05/25 03:55:56;;;;;;;13.47;4.83;;;;;;;12.19;53.66;97823.31;5006254;28;20196;-67
2023/05/25 03:58:21;;;;;;;12.33;4.20;;;;;;;12.17;54.42;97821.81;5009973;28;20220;-68
2023/05/25 04:00:50;;;;;;;8.33;4.07;;;;;;;12.28;54.13;97824.25;5007648;28;20725;-68
2023/05/25 04:03:15;;;;;;;9.70;4.97;;;;;;;12.22;54.26;97841.41;5011633;28;20683;-67
2023/05/25 04:05:41;;;;;;;6.50;4.53;;;;;;;12.22;53.86;97841.41;5003812;28;20436;-67
2023/05/25 04:08:07;;;;;;;9.87;5.23;;;;;;;12.21;54.01;97841.59;5009620;28;20235;-68
2023/05/25 04:10:33;;;;;;;7.90;4.30;;;;;;;12.27;54.48;97849.69;5019696;28;20195;-70
2023/05/25 04:12:58;;;;;;;10.77;5.07;;;;;;;12.37;53.97;97848.81;5014651;28;21047;-69
2023/05/25 04:15:24;;;;;;;11.03;5.30;;;;;;;12.30;54.40;97848.56;5010306;28;20279;-68
2023/05/25 04:17:49;;;;;;;5.17;3.40;;;;;;;12.26;54.54;97841.94;5012774;28;20237;-70
2023/05/25 04:20:15;;;;;;;9.43;4.17;;;;;;;12.25;54.84;97850.81;5006547;28;20288;-69
2023/05/25 04:22:42;;;;;;;9.37;4.90;;;;;;;12.28;54.57;97850.53;5011974;28;20199;-68
2023/05/25 04:25:09;;;;;;;9.20;4.30;;;;;;;12.20;54.88;97845.19;4983122;28;20211;-68
2023/05/25 04:27:35;;;;;;;10.60;3.90;;;;;;;12.29;54.96;97836.41;5008794;28;20477;-69
2023/05/25 04:30:01;;;;;;;14.23;4.40;;;;;;;12.36;54.49;97839.28;5015056;28;20430;-69
2023/05/25 04:32:28;;;;;;;13.60;5.67;;;;;;;12.37;54.81;97838.31;5007723;28;20474;-69
2023/05/25 04:34:55;;;;;;;17.33;5.03;;;;;;;12.26;55.18;97841.94;5007214;28;20435;-68
2023/05/25 04:37:22;;;;;;;10.23;4.70;;;;;;;12.32;55.07;97837.91;5009368;28;20536;-69
2023/05/25 04:39:48;;;;;;;13.63;5.47;;;;;;;12.47;54.72;97843.50;5007527;28;20435;-69
2023/05/25 04:42:13;;;;;;;13.73;4.60;;;;;;;12.55;54.72;97838.31;4997042;28;20502;-68
2023/05/25 04:44:39;;;;;;;10.03;5.10;;;;;;;12.60;54.51;97838.72;5011554;28;20517;-69
2023/05/25 04:47:06;;;;;;;13.90;5.00;;;;;;;12.70;54.62;97841.25;5010964;28;20202;-67
2023/05/25 04:49:31;;;;;;;5.13;4.00;;;;;;;12.79;54.40;97842.16;5007415;28;20219;-67
2023/05/25 04:51:57;;;;;;;10.63;5.17;;;;;;;12.79;53.72;97852.66;5011065;28;20533;-69
2023/05/25 04:54:22;;;;;;;12.83;4.90;;;;;;;12.83;53.29;97854.84;5007462;28;20208;-69
2023/05/25 04:56:47;;;;;;;9.20;4.60;;;;;;;12.85;53.55;97847.63;5009130;28;20196;-68
2023/05/25 04:59:13;;;;;;;9.50;4.27;;;;;;;12.87;53.72;97852.72;5006652;28;20215;-68
2023/05/25 05:01:41;;;;;;;9.83;4.93;;;;;;;12.99;53.61;97848.06;5003093;28;20192;-69
2023/05/25 05:04:06;;;;;;;12.03;5.00;;;;;;;13.06;52.78;97849.94;5006687;28;20216;-69
2023/05/25 05:06:33;;;;;;;15.77;5.73;;;;;;;13.17;52.82;97851.50;5008474;28;20514;-69
2023/05/25 05:08:59;;;;;;;12.40;4.90;;;;;;;13.28;52.60;97853.06;5005829;28;20263;-68
2023/05/25 05:11:24;;;;;;;9.10;4.77;;;;;;;13.38;52.60;97847.72;5006639;28;20431;-68
2023/05/25 05:13:50;;;;;;;11.13;5.00;;;;;;;13.47;52.38;97848.63;5006611;28;20427;-69
2023/05/25 05:16:15;;;;;;;15.60;5.20;;;;;;;13.52;51.59;97856.88;5014861;28;20231;-67
2023/05/25 05:18:41;;;;;;;10.27;4.90;;;;;;;13.63;51.52;97853.97;5006072;28;20204;-69
2023/05/25 05:21:06;;;;;;;10.67;4.90;;;;;;;13.75;51.72;97857.19;5034605;28;20275;-68
2023/05/25 05:23:33;;;;;;;11.07;4.80;;;;;;;13.85;51.10;97866.75;5008379;28;20204;-68
2023/05/25 05:25:59;;;;;;;9.27;5.00;;;;;;;13.96;51.42;97872.59;5014600;28;20218;-68
2023/05/25 05:28:26;;;;;;;10.93;5.07;;;;;;;14.07;50.79;97874.13;5007170;28;21058;-69
2023/05/25 05:30:52;;;;;;;15.23;5.00;;;;;;;14.19;51.46;97874.66;5006506;28;20224;-69
2023/05/25 05:33:18;;;;;;;11.53;5.00;;;;;;;14.37;51.25;97884.28;5006545;28;20511;-70
2023/05/25 05:35:43;;;;;;;10.83;4.77;;;;;;;14.44;49.72;97885.31;5005765;28;20518;-72
2023/05/25 05:38:09;;;;;;;12.57;5.27;;;;;;;14.50;48.64;97886.47;5019267;28;20251;-71
2023/05/25 05:40:35;;;;;;;13.17;4.90;;;;;;;14.61;48.58;97891.44;5016935;28;20271;-71
2023/05/25 05:43:00;;;;;;;14.37;5.93;;;;;;;14.70;48.08;97881.75;5011844;28;20542;-70
2023/05/25 05:45:26;;;;;;;13.23;5.50;;;;;;;14.76;47.91;97883.75;5018945;28;20185;-70
2023/05/25 05:47:51;;;;;;;18.70;5.63;;;;;;;14.86;48.38;97895.00;5004829;28;20319;-69
2023/05/25 05:50:17;;;;;;;15.40;5.77;;;;;;;14.98;48.30;97894.69;5007042;28;20219;-69
2023/05/25 05:52:42;;;;;;;14.70;5.67;;;;;;;15.08;47.72;97894.50;5012844;28;21317;-68
2023/05/25 05:55:08;;;;;;;8.90;4.90;;;;;;;15.17;47.49;97894.34;5012269;28;20193;-69
2023/05/25 05:57:33;;;;;;;12.13;5.67;;;;;;;15.27;47.48;97899.47;5009424;28;20215;-68
2023/05/25 05:59:59;;;;;;;14.60;6.00;;;;;;;15.37;46.51;97904.59;5009894;28;20510;-69
2023/05/25 06:02:24;;;;;;;20.50;6.40;;;;;;;15.41;46.49;97908.53;5009083;28;20275;-69
2023/05/25 06:04:50;;;;;;;15.03;6.07;;;;;;;15.41;46.89;97918.28;5010706;28;20821;-70
2023/05/25 06:07:15;;;;;;;13.00;5.20;;;;;;;15.47;46.96;97920.25;5009250;28;20888;-69
2023/05/25 06:09:40;;;;;;;12.87;5.30;;;;;;;15.47;46.97;97915.81;5011045;28;20200;-69
2023/05/25 06:12:06;;;;;;;14.93;5.87;;;;;;;15.52;46.74;97913.47;5009550;28;20212;-68
2023/05/25 06:14:32;;;;;;;17.90;5.70;;;;;;;15.61;46.55;97919.56;5010273;28;20195;-70
2023/05/25 06:16:57;;;;;;;14.50;6.47;;;;;;;15.79;46.88;97908.00;5006589;28;20219;-71
2023/05/25 06:19:23;;;;;;;14.03;5.53;;;;;;;15.96;46.87;97911.47;5005795;28;20284;-70
2023/05/25 06:21:48;;;;;;;20.03;6.20;;;;;;;16.11;46.62;97912.41;5008794;28;20218;-69
2023/05/25 06:24:14;;;;;;;11.47;4.70;;;;;;;16.26;46.16;97917.81;5004626;28;20200;-69
2023/05/25 06:26:40;;;;;;;13.13;5.80;;;;;;;16.35;45.65;97909.81;5010215;28;20200;-69
2023/05/25 06:29:05;;;;;;;13.87;5.73;;;;;;;16.50;45.14;97907.28;5008419;28;20892;-68
2023/05/25 06:31:31;;;;;;;11.73;5.27;;;;;;;16.58;44.97;97909.88;5004836;28;20193;-71
2023/05/25 06:33:56;;;;;;;11.50;5.20;;;;;;;16.69;44.69;97912.13;5006019;28;20274;-69
2023/05/25 06:36:22;;;;;;;16.73;5.80;;;;;;;16.79;44.40;97916.38;5009643;28;20680;-70
2023/05/25 06:38:47;;;;;;;8.47;5.13;;;;;;;16.88;44.12;97910.06;5009664;28;20200;-70
2023/05/25 06:41:13;;;;;;;19.63;6.13;;;;;;;16.92;44.09;97911.34;5008897;28;20192;-69
2023/05/25 06:43:41;;;;;;;15.27;5.17;;;;;;;17.02;43.95;97916.44;5001644;28;20289;-70
2023/05/25 06:46:08;;;;;;;14.63;5.90;;;;;;;17.00;43.36;97908.69;5013902;28;20947;-69
2023/05/25 06:48:33;;;;;;;13.13;5.80;;;;;;;17.13;43.63;97917.88;5009777;28;20504;-69
2023/05/25 06:50:59;;;;;;;11.73;5.90;;;;;;;17.20;43.49;97921.44;5008703;28;20463;-70
2023/05/25 06:53:24;;;;;;;13.13;5.80;;;;;;;17.28;43.56;97912.59;5009162;28;20200;-68
2023/05/25 06:55:50;;;;;;;17.10;6.40;;;;;;;17.31;43.74;97910.41;5010334;28;20242;-69
2023/05/25 06:58:15;;;;;;;19.73;6.50;;;;;;;17.32;43.08;97911.25;5010371;28;20679;-67
2023/05/25 07:00:41;;;;;;;14.43;5.90;;;;;;;17.41;42.89;97918.13;5009343;28;20760;-69
2023/05/25 07:03:06;;;;;;;15.50;6.13;;;;;;;17.48;43.17;97923.53;5008233;28;20335;-68
2023/05/25 07:05:32;;;;;;;17.73;6.57;;;;;;;17.49;43.09;97927.84;5012002;28;20674;-69
2023/05/25 07:07:57;;;;;;;12.97;6.33;;;;;;;17.49;43.57;97933.13;5008572;28;20239;-69
2023/05/25 07:10:23;;;;;;;18.80;5.43;;;;;;;17.43;43.31;97939.97;5008285;28;20220;-68
2023/05/25 07:12:48;;;;;;;13.57;6.30;;;;;;;17.41;43.83;97935.84;5002280;28;20189;-70
2023/05/25 07:15:15;;;;;;;14.50;6.00;;;;;;;17.33;44.49;97934.91;5019172;28;20220;-69
2023/05/25 07:17:40;;;;;;;15.40;5.90;;;;;;;17.28;44.33;97941.75;5008723;28;20207;-69
2023/05/25 07:20:07;;;;;;;21.27;7.20;;;;;;;17.19;44.37;97943.63;5000041;28;20870;-68
2023/05/25 07:22:32;;;;;;;11.53;6.30;;;;;;;17.10;44.27;97948.16;5008625;28;20195;-69
2023/05/25 07:24:58;;;;;;;13.03;6.00;;;;;;;17.09;44.65;97951.78;5012443;28;20833;-68
2023/05/25 07:27:24;;;;;;;17.87;7.00;;;;;;;17.03;45.00;97950.66;5009949;28;20266;-67
2023/05/25 07:29:50;;;;;;;18.33;6.83;;;;;;;17.02;45.27;97949.03;5001996;28;20189;-69
2023/05/25 07:32:15;;;;;;;10.87;6.50;;;;;;;17.03;45.06;97945.38;5009237;28;20450;-69
2023/05/25 07:34:40;;;;;;;13.67;7.07;;;;;;;17.06;45.29;97956.63;5035007;28;20274;-70
2023/05/25 07:37:06;;;;;;;14.00;5.80;;;;;;;17.09;45.42;97953.63;5010037;28;20231;-69
2023/05/25 07:39:31;;;;;;;14.93;6.50;;;;;;;17.14;45.06;97953.91;5008943;28;20193;-70
2023/05/25 07:41:57;;;;;;;11.53;5.40;;;;;;;17.17;45.60;97951.75;5008715;28;20778;-68
2023/05/25 07:44:22;;;;;;;15.93;6.23;;;;;;;17.27;45.52;97951.50;5009170;28;20247;-69
2023/05/25 07:46:48;;;;;;;17.77;6.63;;;;;;;17.26;45.38;97949.88;5014253;28;20196;-68
2023/05/25 07:49:15;;;;;;;18.07;7.30;;;;;;;17.33;45.10;97956.09;5015308;28;20239;-68
2023/05/25 07:51:44;;;;;;;13.50;5.90;;;;;;;17.45;45.33;97963.63;5008630;28;20239;-69
2023/05/25 07:54:10;;;;;;;20.37;6.93;;;;;;;17.50;44.72;97954.16;5015942;28;20426;-69
2023/05/25 07:56:36;;;;;;;18.80;6.60;;;;;;;17.58;44.78;97963.03;5010852;28;20444;-68
2023/05/25 07:59:02;;;;;;;22.40;7.40;;;;;;;17.75;44.80;97953.13;5011172;28;20485;-69
2023/05/25 08:01:27;;;;;;;18.13;7.90;;;;;;;17.81;44.17;97952.38;5008357;28;20948;-68
2023/05/25 08:03:53;;;;;;;15.50;7.00;;;;;;;17.92;44.30;97954.59;5008098;28;20539;-69
2023/05/25 08:06:18;;;;;;;21.43;7.53;;;;;;;18.10;43.67;97940.19;5007709;28;20200;-68
2023/05/25 08:08:44;;;;;;;16.63;7.53;;;;;;;18.24;43.55;97941.19;5008546;28;20291;-70
2023/05/25 08:11:10;;;;;;;11.93;6.27;;;;;;;18.43;43.37;97942.47;5007424;28;20193;-69
2023/05/25 08:13:36;;;;;;;13.00;6.40;;;;;;;18.71;43.03;97944.44;5014426;28;20197;-68
2023/05/25 08:16:01;;;;;;;16.37;7.20;;;;;;;18.92;42.72;97945.47;5009084;28;20429;-70
2023/05/25 08:18:27;;;;;;;20.77;7.60;;;;;;;19.11;42.57;97954.69;5007834;28;20240;-70
2023/05/25 08:20:52;;;;;;;13.67;6.77;;;;;;;19.25;41.83;97939.72;5008408;28;20575;-69
2023/05/25 08:23:18;;;;;;;12.17;6.10;;;;;;;19.34;41.77;97944.69;5007508;28;20216;-68
2023/05/25 08:25:43;;;;;;;13.00;7.37;;;;;;;19.56;41.22;97934.06;5013288;28;20271;-69
2023/05/25 08:28:09;;;;;;;14.87;6.60;;;;;;;19.76;41.10;97939.53;5007486;28;20220;-69
2023/05/25 08:30:34;;;;;;;15.23;7.00;;;;;;;19.94;41.44;97947.06;5009563;28;20676;-69
2023/05/25 08:33:00;;;;;;;19.87;6.53;;;;;;;20.20;41.05;97950.06;5007664;28;20288;-69
2023/05/25 08:35:25;;;;;;;19.10;7.60;;;;;;;20.35;40.79;97952.63;5015310;28;20303;-68
2023/05/25 08:37:51;;;;;;;16.00;6.77;;;;;;;20.50;40.58;97945.28;5016072;28;20723;-70
2023/05/25 08:40:18;;;;;;;14.83;6.43;;;;;;;20.63;40.33;97959.69;5007704;28;20578;-69
2023/05/25 08:42:43;;;;;;;13.20;6.50;;;;;;;20.86;40.01;97959.41;5010388;28;20188;-71
2023/05/25 08:45:09;;;;;;;12.23;6.37;;;;;;;21.03;38.92;97959.84;5015316;28;20942;-70
2023/05/25 08:47:40;;;;;;;14.10;7.57;;;;;;;21.14;39.40;97955.78;5013134;28;20478;-70
2023/05/25 08:50:08;;;;;;;18.97;6.43;;;;;;;21.10;39.05;97960.69;5007161;28;20593;-70
2023/05/25 08:52:35;;;;;;;11.17;6.30;;;;;;;21.22;39.37;97957.44;5006755;28;20435;-70
2023/05/25 08:55:31;;;;;;;15.07;6.80;;;;;;;21.14;39.19;97953.13;5008016;28;20478;-69
2023/05/25 08:58:07;;;;;;;13.90;7.40;;;;;;;21.20;39.67;97946.16;5008464;28;20474;-70
2023/05/25 09:00:41;;;;;;;11.80;6.80;;;;;;;21.40;39.98;97951.50;5000908;28;20464;-69
2023/05/25 09:03:13;;;;;;;14.40;6.03;;;;;;;21.47;39.03;97947.81;5015144;28;20489;-70
2023/05/25 09:05:39;;;;;;;17.00;7.20;;;;;;;21.65;38.66;97949.06;5006148;28;20432;-69
2023/05/25 09:08:08;;;;;;;13.53;6.67;;;;;;;21.79;38.48;97942.72;5005897;28;20499;-70
2023/05/25 09:10:34;;;;;;;18.20;7.20;;;;;;;22.00;38.52;97945.34;5007747;28;20255;-69
2023/05/25 09:13:00;;;;;;;18.33;7.23;;;;;;;22.12;37.89;97957.03;5015756;28;20423;-70
2023/05/25 09:15:26;;;;;;;15.57;6.93;;;;;;;22.41;37.64;97949.59;5014951;28;20434;-70
2023/05/25 09:17:51;;;;;;;14.23;7.87;;;;;;;22.53;36.86;97950.59;5022816;28;20235;-71
2023/05/25 09:20:17;;;;;;;12.57;7.43;;;;;;;22.57;36.83;97956.31;5010510;28;20700;-69
2023/05/25 09:22:43;;;;;;;11.53;6.63;;;;;;;22.68;37.78;97954.84;5008526;28;20196;-69
2023/05/25 09:25:13;;;;;;;10.40;6.83;;;;;;;22.74;37.17;97959.31;5013385;28;20204;-69
2023/05/25 09:27:38;;;;;;;13.87;7.37;;;;;;;22.71;36.82;97957.06;5014960;28;20648;-70
2023/05/25 09:30:05;;;;;;;13.90;6.80;;;;;;;22.78;37.04;97955.22;5011253;28;20534;-70
2023/05/25 09:32:31;;;;;;;13.67;7.00;;;;;;;23.00;36.67;97957.56;5009904;28;20185;-70
2023/05/25 09:35:09;;;;;;;16.80;7.10;;;;;;;23.22;36.76;97955.41;5016931;28;20966;-70
2023/05/25 09:37:35;;;;;;;19.43;6.80;;;;;;;23.54;36.03;97970.59;5009582;28;20669;-70
2023/05/25 09:40:04;;;;;;;20.57;7.30;;;;;;;23.45;36.03;97962.03;5011250;28;20528;-70
2023/05/25 09:42:30;;;;;;;10.00;6.70;;;;;;;23.24;35.63;97960.53;5019331;28;20558;-70
2023/05/25 09:44:58;;;;;;;12.73;7.23;;;;;;;23.00;36.44;97973.59;5012328;28;20899;-70
2023/05/25 09:47:23;;;;;;;10.63;7.13;;;;;;;22.77;36.73;97968.75;5021997;28;20496;-70
2023/05/25 09:49:49;;;;;;;15.80;6.87;;;;;;;22.65;36.84;97968.63;5010716;28;20518;-69
2023/05/25 09:52:15;;;;;;;10.57;6.33;;;;;;;22.51;37.40;97960.66;5008913;28;20242;-70
2023/05/25 09:54:50;;;;;;;13.70;7.40;;;;;;;22.31;37.59;97967.84;5011695;28;20259;-70
2023/05/25 09:57:16;;;;;;;18.13;7.73;;;;;;;22.30;38.43;97963.56;5012139;28;20196;-68
2023/05/25 09:59:44;;;;;;;12.03;6.60;;;;;;;22.35;37.79;97961.91;5009357;28;20435;-69
2023/05/25 10:02:10;;;;;;;16.17;7.10;;;;;;;22.43;38.39;97968.88;5009933;28;20518;-69
2023/05/25 10:04:35;;;;;;;16.20;7.03;;;;;;;22.38;38.12;97961.47;5010152;28;20443;-69
2023/05/25 10:07:01;;;;;;;10.50;7.30;;;;;;;22.43;38.09;97952.06;5010796;28;20531;-69
2023/05/25 10:09:28;;;;;;;12.73;6.63;;;;;;;22.40;38.22;97958.59;5016740;28;20220;-69
2023/05/25 10:11:56;;;;;;;12.40;7.27;;;;;;;22.44;37.96;97965.19;5010088;28;20181;-69
2023/05/25 10:14:28;;;;;;;12.33;6.60;;;;;;;22.75;37.67;97979.66;5011283;28;20963;-68
2023/05/25 10:16:56;;;;;;;13.50;7.20;;;;;;;23.07;37.18;97963.66;5009703;28;20443;-69
2023/05/25 10:19:44;;;;;;;11.50;6.77;;;;;;;23.27;36.61;97973.47;5011077;28;20504;-68
2023/05/25 10:22:23;;;;;;;11.53;6.30;;;;;;;23.58;36.13;97955.75;5008310;28;20873;-68
2023/05/25 10:25:06;;;;;;;10.30;6.10;;;;;;;23.54;36.25;97978.63;5014162;28;20427;-69
2023/05/25 10:27:38;;;;;;;10.03;6.60;;;;;;;23.61;35.96;97974.03;5012096;28;20462;-69
2023/05/25 10:30:04;;;;;;;16.97;6.83;;;;;;;23.65;36.07;97958.38;5008470;28;20893;-68
2023/05/25 10:32:31;;;;;;;10.37;6.40;;;;;;;23.49;36.13;97967.75;5012566;28;20439;-69
2023/05/25 10:34:58;;;;;;;9.57;5.60;;;;;;;23.59;36.50;97966.25;5013847;28;20463;-70
2023/05/25 10:37:25;;;;;;;8.70;6.20;;;;;;;23.77;36.16;97968.16;5013729;28;20459;-69
2023/05/25 10:39:51;;;;;;;13.83;6.60;;;;;;;24.10;36.61;97966.22;5014912;28;21069;-69
2023/05/25 10:42:17;;;;;;;10.57;5.90;;;;;;;24.29;35.21;97959.03;5012242;28;20443;-69
2023/05/25 10:44:44;;;;;;;13.87;5.53;;;;;;;24.37;35.76;97964.09;5009936;28;20445;-70
2023/05/25 10:47:10;;;;;;;13.33;6.20;;;;;;;24.42;35.41;97962.59;5012374;28;20199;-68
2023/05/25 10:49:51;;;;;;;10.50;6.03;;;;;;;24.56;35.48;97958.72;5014080;28;20498;-69
2023/05/25 10:52:18;;;;;;;16.83;6.60;;;;;;;24.49;35.44;97953.47;5015570;28;20489;-68
2023/05/25 10:54:45;;;;;;;9.37;6.00;;;;;;;24.54;34.78;97956.25;5008923;28;20484;-70
2023/05/25 10:57:13;;;;;;;10.73;5.53;;;;;;;24.63;35.04;97964.00;5008915;28;20862;-70
2023/05/25 10:59:43;;;;;;;13.33;5.50;;;;;;;24.62;35.18;97962.38;5010022;28;20431;-69
2023/05/25 11:02:09;;;;;;;17.30;5.90;;;;;;;24.42;35.25;97971.44;5014978;28;20431;-70
2023/05/25 11:04:38;;;;;;;17.03;6.10;;;;;;;24.27;35.21;97962.94;5006739;28;20861;-70
2023/05/25 11:07:07;;;;;;;12.93;5.90;;;;;;;24.02;36.08;97972.69;5013551;28;20282;-70
2023/05/25 11:09:34;;;;;;;15.50;6.30;;;;;;;24.01;35.97;97964.84;5011102;28;20891;-68
2023/05/25 11:12:02;;;;;;;10.10;5.93;;;;;;;24.27;36.27;97965.63;5009094;28;20936;-70
2023/05/25 11:14:29;;;;;;;10.70;5.77;;;;;;;24.41;35.56;97971.69;5012296;28;20438;-71
2023/05/25 11:17:13;;;;;;;11.63;5.50;;;;;;;24.46;35.72;97963.78;5010354;28;20455;-72
2023/05/25 11:19:52;;;;;;;9.60;5.60;;;;;;;24.47;35.55;97958.22;5008703;28;20423;-71
2023/05/25 11:22:20;;;;;;;10.43;5.90;;;;;;;24.41;35.64;97960.97;5008937;28;20439;-70
2023/05/25 11:24:46;;;;;;;9.93;5.70;;;;;;;24.34;36.20;97966.41;5012635;28;20435;-70
2023/05/25 11:27:12;;;;;;;12.40;5.97;;;;;;;24.26;36.06;97956.78;5012861;28;20435;-70
2023/05/25 11:29:38;;;;;;;12.37;6.20;;;;;;;24.29;35.50;97952.84;5007804;28;20814;-71